createdAt,value
2022-10-23T00:01:47.335Z,22.03
2022-10-23T00:04:21.699Z,22.03
2022-10-23T00:06:50.050Z,22.01
2022-10-23T00:09:21.535Z,22.00
2022-10-23T00:11:50.895Z,21.98
2022-10-23T00:14:21.687Z,21.98
2022-10-23T00:16:50.833Z,21.96
2022-10-23T00:19:18.905Z,21.94
2022-10-23T00:21:46.985Z,21.92
2022-10-23T00:24:15.278Z,21.90
2022-10-23T00:26:43.443Z,21.88
2022-10-23T00:29:11.748Z,21.86
2022-10-23T00:31:40.107Z,21.84
2022-10-23T00:34:08.478Z,21.82
2022-10-23T00:36:37.936Z,21.81
2022-10-23T00:39:06.585Z,21.79
2022-10-23T00:41:35.275Z,21.78
2022-10-23T00:44:11.131Z,21.76
2022-10-23T00:46:39.613Z,21.75
2022-10-23T00:49:09.727Z,21.74
2022-10-23T00:51:47.922Z,21.72
2022-10-23T00:54:25.645Z,21.70
2022-10-23T00:56:59.143Z,21.66
2022-10-23T00:59:27.762Z,21.63
2022-10-23T01:01:56.166Z,21.58
2022-10-23T01:04:25.925Z,21.55
2022-10-23T01:07:31.762Z,21.52
2022-10-23T01:10:37.904Z,21.48
2022-10-23T01:13:14.269Z,21.44
2022-10-23T01:15:52.955Z,21.41
2022-10-23T01:18:44.811Z,21.37
2022-10-23T01:21:22.605Z,21.35
2022-10-23T01:23:56.678Z,21.32
2022-10-23T01:27:01.635Z,21.29
2022-10-23T01:29:49.179Z,21.27
2022-10-23T01:32:27.687Z,21.24
2022-10-23T01:35:01.592Z,21.23
2022-10-23T01:37:55.739Z,21.20
2022-10-23T01:40:47.561Z,21.19
2022-10-23T01:43:25.258Z,21.17
2022-10-23T01:46:01.387Z,21.16
2022-10-23T01:48:31.132Z,21.14
2022-10-23T01:51:03.609Z,21.12
2022-10-23T01:53:37.520Z,21.10
2022-10-23T01:56:12.184Z,21.09
2022-10-23T01:58:45.956Z,21.08
2022-10-23T02:01:16.628Z,21.07
2022-10-23T02:03:45.247Z,21.07
2022-10-23T02:06:13.453Z,21.07
2022-10-23T02:08:42.042Z,21.07
2022-10-23T02:11:15.743Z,21.07
2022-10-23T02:14:04.145Z,21.07
2022-10-23T02:16:55.392Z,21.05
2022-10-23T02:19:35.660Z,21.06
2022-10-23T02:22:32.987Z,21.05
2022-10-23T02:25:09.571Z,21.04
2022-10-23T02:27:43.114Z,21.02
2022-10-23T02:30:16.235Z,21.03
2022-10-23T02:32:53.840Z,21.02
2022-10-23T02:35:26.421Z,21.01
2022-10-23T02:37:59.515Z,21.00
2022-10-23T02:40:42.018Z,20.99
2022-10-23T02:43:21.985Z,20.99
2022-10-23T02:46:20.780Z,20.97
2022-10-23T02:48:57.227Z,20.96
2022-10-23T02:51:44.724Z,20.95
2022-10-23T02:54:22.700Z,20.94
2022-10-23T02:57:06.249Z,20.93
2022-10-23T02:59:34.207Z,20.92
2022-10-23T03:02:51.631Z,20.91
2022-10-23T03:05:28.607Z,20.90
2022-10-23T03:07:56.887Z,20.89
2022-10-23T03:10:25.375Z,20.88
2022-10-23T03:12:53.451Z,20.88
2022-10-23T03:15:21.421Z,20.87
2022-10-23T03:17:49.404Z,20.86
2022-10-23T03:20:18.086Z,20.85
2022-10-23T03:22:46.348Z,20.84
2022-10-23T03:25:14.852Z,20.83
2022-10-23T03:27:43.133Z,20.82
2022-10-23T03:30:11.415Z,20.82
2022-10-23T03:32:39.676Z,20.81
2022-10-23T03:35:08.595Z,20.80
2022-10-23T03:37:36.667Z,20.79
2022-10-23T03:40:05.257Z,20.78
2022-10-23T03:42:33.433Z,20.76
2022-10-23T03:45:01.405Z,20.75
2022-10-23T03:47:30.401Z,20.73
2022-10-23T03:49:58.579Z,20.73
2022-10-23T03:52:26.558Z,20.72
2022-10-23T03:54:54.529Z,20.70
2022-10-23T03:57:22.601Z,20.71
2022-10-23T03:59:50.679Z,20.71
2022-10-23T04:02:18.945Z,20.71
2022-10-23T04:04:47.140Z,20.70
2022-10-23T04:07:15.419Z,20.69
2022-10-23T04:09:43.410Z,20.69
2022-10-23T04:12:11.466Z,20.69
2022-10-23T04:14:39.622Z,20.69
2022-10-23T04:17:07.938Z,20.68
2022-10-23T04:19:36.105Z,20.68
2022-10-23T04:22:04.080Z,20.68
2022-10-23T04:24:32.257Z,20.66
2022-10-23T04:27:00.538Z,20.64
2022-10-23T04:29:28.920Z,20.63
2022-10-23T04:31:57.207Z,20.62
2022-10-23T04:34:25.181Z,20.61
2022-10-23T04:36:53.154Z,20.59
2022-10-23T04:39:21.327Z,20.59
2022-10-23T04:41:49.202Z,20.59
2022-10-23T04:44:17.176Z,20.59
2022-10-23T04:46:45.045Z,20.59
2022-10-23T04:49:13.016Z,20.58
2022-10-23T04:51:40.933Z,20.58
2022-10-23T04:54:08.759Z,20.58
2022-10-23T04:56:36.841Z,20.57
2022-10-23T05:01:33.992Z,20.56
2022-10-23T05:04:02.608Z,20.56
2022-10-23T05:06:30.883Z,20.56
2022-10-23T05:08:58.858Z,20.55
2022-10-23T05:11:26.931Z,20.55
2022-10-23T05:13:54.901Z,20.55
2022-10-23T05:16:36.588Z,20.54
2022-10-23T05:19:07.366Z,20.55
2022-10-23T05:21:38.575Z,20.56
2022-10-23T05:24:07.061Z,20.54
2022-10-23T05:26:35.037Z,20.54
2022-10-23T05:29:03.551Z,20.54
2022-10-23T05:31:34.765Z,20.53
2022-10-23T05:34:02.690Z,20.52
2022-10-23T05:36:32.067Z,20.51
2022-10-23T05:38:59.944Z,20.51
2022-10-23T05:41:27.889Z,20.50
2022-10-23T05:43:56.071Z,20.48
2022-10-23T05:46:24.042Z,20.48
2022-10-23T05:48:52.896Z,20.46
2022-10-23T05:51:21.938Z,20.45
2022-10-23T05:53:50.881Z,20.43
2022-10-23T05:56:19.621Z,20.41
2022-10-23T05:58:47.696Z,20.39
2022-10-23T06:01:15.826Z,20.36
2022-10-23T06:03:43.746Z,20.34
2022-10-23T06:06:12.334Z,20.31
2022-10-23T06:08:40.307Z,20.29
2022-10-23T06:11:09.949Z,20.28
2022-10-23T06:13:38.512Z,20.25
2022-10-23T06:16:15.281Z,20.24
2022-10-23T06:18:44.285Z,20.21
2022-10-23T06:21:13.171Z,20.19
2022-10-23T06:23:43.191Z,20.18
2022-10-23T06:26:13.866Z,20.16
2022-10-23T06:28:41.948Z,20.15
2022-10-23T06:31:13.571Z,20.14
2022-10-23T06:33:42.045Z,20.13
2022-10-23T06:36:10.122Z,20.13
2022-10-23T06:38:39.181Z,20.13
2022-10-23T06:41:19.533Z,20.14
2022-10-23T06:43:49.915Z,20.16
2022-10-23T06:46:19.217Z,20.18
2022-10-23T06:48:47.238Z,20.20
2022-10-23T06:51:17.928Z,20.20
2022-10-23T06:53:46.301Z,20.22
2022-10-23T06:56:14.865Z,20.24
2022-10-23T06:58:42.813Z,20.26
2022-10-23T07:01:13.125Z,20.30
2022-10-23T07:03:41.095Z,20.35
2022-10-23T07:06:10.985Z,20.39
2022-10-23T07:08:38.977Z,20.46
2022-10-23T07:11:09.381Z,20.51
2022-10-23T07:13:38.797Z,20.62
2022-10-23T07:16:19.301Z,20.74
2022-10-23T07:18:48.881Z,20.86
2022-10-23T07:21:17.036Z,20.96
2022-10-23T07:23:44.912Z,21.06
2022-10-23T07:26:15.825Z,21.16
2022-10-23T07:28:45.947Z,21.25
2022-10-23T07:31:14.661Z,21.36
2022-10-23T07:33:42.738Z,21.46
2022-10-23T07:36:10.820Z,21.57
2022-10-23T07:38:39.096Z,21.67
2022-10-23T07:41:09.045Z,21.79
2022-10-23T07:43:40.054Z,21.90
2022-10-23T07:46:08.648Z,22.01
2022-10-23T07:48:37.946Z,22.12
2022-10-23T07:51:13.862Z,22.23
2022-10-23T07:53:43.308Z,22.35
2022-10-23T07:56:37.490Z,22.48
2022-10-23T07:59:05.427Z,22.61
2022-10-23T08:01:40.737Z,22.73
2022-10-23T08:04:10.617Z,22.84
2022-10-23T08:06:38.689Z,22.95
2022-10-23T08:09:07.380Z,23.04
2022-10-23T08:11:35.890Z,23.15
2022-10-23T08:14:06.606Z,23.25
2022-10-23T08:16:37.438Z,23.36
2022-10-23T08:19:07.203Z,23.46
2022-10-23T08:21:35.228Z,23.56
2022-10-23T08:24:03.734Z,23.66
2022-10-23T08:26:32.300Z,23.77
2022-10-23T08:29:00.990Z,23.88
2022-10-23T08:31:29.095Z,23.98
2022-10-23T08:33:57.085Z,24.10
2022-10-23T08:36:27.666Z,24.21
2022-10-23T08:38:57.900Z,24.33
2022-10-23T08:41:28.123Z,24.45
2022-10-23T08:44:24.762Z,24.57
2022-10-23T08:47:08.419Z,24.70
2022-10-23T08:49:58.057Z,24.80
2022-10-23T08:52:37.412Z,24.88
2022-10-23T08:55:35.994Z,24.95
2022-10-23T08:58:27.118Z,24.99
2022-10-23T09:00:55.342Z,25.03
2022-10-23T09:03:23.513Z,25.06
2022-10-23T09:06:03.510Z,25.05
2022-10-23T09:08:59.474Z,25.01
2022-10-23T09:11:59.990Z,24.95
2022-10-23T09:14:30.623Z,24.89
2022-10-23T09:17:17.056Z,24.86
2022-10-23T09:19:46.330Z,24.82
2022-10-23T09:22:14.395Z,24.80
2022-10-23T09:24:44.212Z,24.81
2022-10-23T09:27:17.612Z,24.86
2022-10-23T09:29:51.829Z,24.92
2022-10-23T09:32:20.574Z,24.98
2022-10-23T09:34:55.144Z,25.02
2022-10-23T09:37:23.117Z,25.08
2022-10-23T09:40:24.682Z,25.13
2022-10-23T09:43:01.633Z,25.20
2022-10-23T09:45:31.881Z,25.25
2022-10-23T09:48:12.974Z,25.29
2022-10-23T09:51:02.396Z,25.34
2022-10-23T09:53:33.230Z,25.40
2022-10-23T09:56:24.638Z,25.49
2022-10-23T09:59:15.808Z,25.62
2022-10-23T10:01:53.386Z,25.79
2022-10-23T10:04:36.379Z,25.94
2022-10-23T10:07:15.786Z,26.03
2022-10-23T10:09:43.863Z,26.07
2022-10-23T10:12:17.770Z,26.12
2022-10-23T10:15:09.997Z,26.18
2022-10-23T10:17:50.975Z,26.27
2022-10-23T10:21:08.777Z,26.29
2022-10-23T10:23:47.395Z,26.29
2022-10-23T10:26:34.508Z,26.30
2022-10-23T10:29:21.415Z,26.33
2022-10-23T10:32:22.438Z,26.31
2022-10-23T10:35:11.898Z,26.24
2022-10-23T10:37:48.615Z,26.17
2022-10-23T10:40:38.962Z,26.19
2022-10-23T10:43:29.366Z,26.21
2022-10-23T10:46:20.765Z,26.21
2022-10-23T10:49:01.362Z,26.21
2022-10-23T10:51:59.473Z,26.24
2022-10-23T10:54:30.412Z,26.31
2022-10-23T10:57:01.047Z,26.38
2022-10-23T10:59:38.848Z,26.45
2022-10-23T11:02:29.125Z,26.54
2022-10-23T11:05:29.156Z,26.64
2022-10-23T11:08:07.159Z,26.69
2022-10-23T11:10:39.301Z,26.73
2022-10-23T11:13:26.517Z,26.78
2022-10-23T11:16:04.006Z,26.86
2022-10-23T11:18:33.890Z,26.93
2022-10-23T11:21:32.497Z,26.99
2022-10-23T11:24:19.404Z,27.07
2022-10-23T11:27:25.236Z,27.14
2022-10-23T11:30:26.265Z,27.21
2022-10-23T11:33:34.556Z,27.37
2022-10-23T11:36:18.702Z,27.61
2022-10-23T11:38:50.016Z,27.91
2022-10-23T11:41:25.310Z,28.09
2022-10-23T11:43:57.459Z,28.17
2022-10-23T11:46:25.538Z,28.19
2022-10-23T11:48:55.560Z,28.22
2022-10-23T11:51:40.823Z,28.24
2022-10-23T11:54:11.585Z,28.27
2022-10-23T11:56:54.415Z,28.31
2022-10-23T11:59:26.029Z,28.38
2022-10-23T12:01:57.257Z,28.45
2022-10-23T12:04:33.650Z,28.43
2022-10-23T12:07:13.690Z,28.34
2022-10-23T12:09:45.446Z,28.27
2022-10-23T12:12:16.841Z,28.18
2022-10-23T12:14:50.199Z,28.01
2022-10-23T12:17:24.107Z,27.83
2022-10-23T12:19:55.079Z,27.73
2022-10-23T12:22:32.293Z,27.62
2022-10-23T12:25:07.459Z,27.56
2022-10-23T12:27:46.052Z,27.46
2022-10-23T12:30:29.207Z,27.37
2022-10-23T12:33:22.127Z,27.35
2022-10-23T12:35:59.026Z,27.32
2022-10-23T12:38:33.947Z,27.27
2022-10-23T12:41:13.563Z,27.26
2022-10-23T12:43:45.845Z,27.29
2022-10-23T12:46:33.331Z,27.29
2022-10-23T12:49:03.789Z,27.25
2022-10-23T12:51:34.418Z,27.22
2022-10-23T12:54:03.558Z,27.20
2022-10-23T12:56:38.075Z,27.15
2022-10-23T12:59:18.431Z,27.14
2022-10-23T13:01:51.799Z,27.14
2022-10-23T13:04:33.319Z,27.17
2022-10-23T13:07:03.769Z,27.15
2022-10-23T13:09:39.900Z,27.09
2022-10-23T13:12:16.817Z,27.01
2022-10-23T13:15:17.537Z,26.91
2022-10-23T13:17:57.855Z,26.80
2022-10-23T13:20:37.389Z,26.81
2022-10-23T13:23:08.537Z,26.85
2022-10-23T13:25:39.309Z,26.81
2022-10-23T13:28:22.084Z,26.76
2022-10-23T13:30:59.371Z,26.76
2022-10-23T13:33:34.611Z,26.75
2022-10-23T13:36:07.616Z,26.72
2022-10-23T13:38:38.208Z,26.67
2022-10-23T13:41:11.762Z,26.60
2022-10-23T13:43:41.854Z,26.49
2022-10-23T13:46:24.842Z,26.40
2022-10-23T13:48:53.562Z,26.28
2022-10-23T13:51:24.464Z,26.19
2022-10-23T13:53:53.192Z,26.13
2022-10-23T13:56:23.246Z,26.12
2022-10-23T13:58:51.348Z,26.08
2022-10-23T14:01:28.292Z,26.03
2022-10-23T14:03:57.779Z,25.96
2022-10-23T14:06:26.056Z,25.91
2022-10-23T14:08:54.340Z,25.88
2022-10-23T14:11:22.721Z,25.89
2022-10-23T14:13:51.005Z,25.88
2022-10-23T14:16:20.717Z,25.86
2022-10-23T14:18:49.144Z,25.84
2022-10-23T14:21:20.718Z,25.85
2022-10-23T14:23:49.998Z,25.86
2022-10-23T14:26:21.012Z,25.86
2022-10-23T14:28:55.292Z,25.85
2022-10-23T14:31:23.706Z,25.83
2022-10-23T14:33:57.247Z,25.80
2022-10-23T14:36:30.917Z,25.79
2022-10-23T14:39:06.860Z,25.76
2022-10-23T14:41:35.249Z,25.73
2022-10-23T14:44:03.320Z,25.69
2022-10-23T14:46:31.397Z,25.66
2022-10-23T14:49:02.334Z,25.63
2022-10-23T14:51:30.829Z,25.64
2022-10-23T14:54:04.221Z,25.64
2022-10-23T14:56:35.527Z,25.63
2022-10-23T14:59:05.091Z,25.60
2022-10-23T15:01:36.731Z,25.54
2022-10-23T15:04:05.537Z,25.47
2022-10-23T15:06:35.090Z,25.43
2022-10-23T15:09:04.444Z,25.38
2022-10-23T15:11:33.173Z,25.32
2022-10-23T15:14:01.211Z,25.25
2022-10-23T15:16:29.286Z,25.20
2022-10-23T15:18:57.372Z,25.14
2022-10-23T15:21:25.542Z,25.10
2022-10-23T15:23:53.542Z,25.08
2022-10-23T15:26:22.207Z,25.06
2022-10-23T15:29:01.899Z,25.05
2022-10-23T15:31:29.922Z,25.03
2022-10-23T15:33:58.610Z,25.01
2022-10-23T15:36:27.301Z,25.01
2022-10-23T15:38:55.581Z,25.03
2022-10-23T15:41:32.047Z,25.05
2022-10-23T15:44:02.285Z,25.08
2022-10-23T15:46:30.762Z,25.09
2022-10-23T15:48:58.939Z,25.11
2022-10-23T15:51:27.628Z,25.15
2022-10-23T15:53:56.217Z,25.21
2022-10-23T15:56:24.807Z,25.26
2022-10-23T15:58:53.110Z,25.29
2022-10-23T16:01:21.217Z,25.31
2022-10-23T16:03:49.443Z,25.32
2022-10-23T16:06:19.404Z,25.32
2022-10-23T16:08:48.013Z,25.30
2022-10-23T16:11:18.305Z,25.27
2022-10-23T16:13:46.860Z,25.26
2022-10-23T16:16:16.472Z,25.25
2022-10-23T16:18:44.816Z,25.24
2022-10-23T16:21:22.174Z,25.21
2022-10-23T16:23:51.899Z,25.19
2022-10-23T16:26:20.849Z,25.18
2022-10-23T16:28:53.428Z,25.17
2022-10-23T16:31:24.930Z,25.15
2022-10-23T16:33:53.698Z,25.12
2022-10-23T16:36:21.956Z,25.09
2022-10-23T16:38:49.929Z,25.07
2022-10-23T16:41:18.208Z,25.06
2022-10-23T16:43:46.304Z,25.04
2022-10-23T16:46:17.936Z,25.03
2022-10-23T16:48:46.332Z,25.01
2022-10-23T16:51:20.341Z,24.97
2022-10-23T16:53:49.187Z,24.94
2022-10-23T16:56:20.502Z,24.91
2022-10-23T16:58:49.093Z,24.88
2022-10-23T17:01:21.572Z,24.85
2022-10-23T17:03:51.974Z,24.82
2022-10-23T17:06:23.632Z,24.79
2022-10-23T17:08:52.893Z,24.75
2022-10-23T17:11:23.859Z,24.71
2022-10-23T17:13:59.280Z,24.68
2022-10-23T17:16:33.843Z,24.66
2022-10-23T17:19:03.157Z,24.63
2022-10-23T17:21:34.893Z,24.60
2022-10-23T17:24:03.497Z,24.57
2022-10-23T17:26:32.084Z,24.55
2022-10-23T17:29:02.000Z,24.53
2022-10-23T17:31:33.079Z,24.51
2022-10-23T17:34:04.481Z,24.48
2022-10-23T17:36:35.542Z,24.46
2022-10-23T17:39:08.644Z,24.43
2022-10-23T17:41:37.320Z,24.40
2022-10-23T17:44:05.500Z,24.37
2022-10-23T17:46:33.577Z,24.34
2022-10-23T17:49:03.510Z,24.32
2022-10-23T17:51:35.438Z,24.30
2022-10-23T17:54:09.227Z,24.27
2022-10-23T17:56:38.058Z,24.25
2022-10-23T17:59:10.431Z,24.23
2022-10-23T18:01:38.803Z,24.21
2022-10-23T18:04:08.121Z,24.19
2022-10-23T18:06:42.500Z,24.17
2022-10-23T18:09:11.228Z,24.15
2022-10-23T18:11:45.610Z,24.14
2022-10-23T18:14:19.175Z,24.12
2022-10-23T18:16:48.151Z,24.10
2022-10-23T18:19:17.964Z,24.08
2022-10-23T18:21:47.469Z,24.06
2022-10-23T18:24:16.058Z,24.04
2022-10-23T18:26:44.343Z,24.02
2022-10-23T18:29:13.030Z,24.01
2022-10-23T18:31:41.512Z,24.01
2022-10-23T18:34:17.776Z,23.99
2022-10-23T18:36:46.606Z,23.99
2022-10-23T18:39:17.413Z,23.97
2022-10-23T18:41:46.201Z,23.97
2022-10-23T18:44:16.816Z,23.96
2022-10-23T18:46:47.031Z,23.95
2022-10-23T18:49:17.490Z,23.96
2022-10-23T18:51:45.916Z,23.95
2022-10-23T18:54:15.795Z,23.95
2022-10-23T18:56:44.485Z,23.94
2022-10-23T18:59:19.648Z,23.93
2022-10-23T19:01:48.737Z,23.92
2022-10-23T19:04:17.100Z,23.92
2022-10-23T19:06:46.501Z,23.92
2022-10-23T19:09:14.686Z,23.91
2022-10-23T19:11:43.892Z,23.89
2022-10-23T19:14:12.887Z,23.88
2022-10-23T19:16:49.693Z,23.86
2022-10-23T19:19:20.193Z,23.85
2022-10-23T19:21:49.551Z,23.84
2022-10-23T19:24:25.708Z,23.82
2022-10-23T19:26:54.957Z,23.81
2022-10-23T19:29:25.795Z,23.79
2022-10-23T19:31:54.212Z,23.77
2022-10-23T19:34:24.235Z,23.76
2022-10-23T19:36:54.229Z,23.75
2022-10-23T19:39:22.703Z,23.74
2022-10-23T19:41:50.679Z,23.73
2022-10-23T19:44:19.367Z,23.72
2022-10-23T19:46:48.671Z,23.70
2022-10-23T19:49:17.914Z,23.69
2022-10-23T19:51:50.970Z,23.67
2022-10-23T19:54:21.461Z,23.66
2022-10-23T19:56:49.786Z,23.64
2022-10-23T19:59:18.674Z,23.62
2022-10-23T20:01:48.998Z,23.61
2022-10-23T20:04:19.263Z,23.60
2022-10-23T20:06:47.515Z,23.59
2022-10-23T20:09:15.994Z,23.58
2022-10-23T20:11:44.170Z,23.57
2022-10-23T20:14:13.062Z,23.56
2022-10-23T20:16:43.084Z,23.54
2022-10-23T20:19:14.081Z,23.53
2022-10-23T20:21:44.810Z,23.51
2022-10-23T20:24:14.989Z,23.50
2022-10-23T20:26:45.621Z,23.48
2022-10-23T20:29:14.822Z,23.47
2022-10-23T20:31:43.528Z,23.45
2022-10-23T20:34:12.303Z,23.44
2022-10-23T20:36:46.946Z,23.44
2022-10-23T20:39:21.535Z,23.42
2022-10-23T20:41:49.632Z,23.39
2022-10-23T20:44:20.203Z,23.37
2022-10-23T20:46:49.571Z,23.36
2022-10-23T20:49:17.952Z,23.33
2022-10-23T20:51:46.071Z,23.32
2022-10-23T20:54:14.104Z,23.30
2022-10-23T20:56:42.385Z,23.28
2022-10-23T20:59:13.767Z,23.26
2022-10-23T21:01:44.705Z,23.25
2022-10-23T21:04:14.037Z,23.22
2022-10-23T21:06:57.642Z,23.19
2022-10-23T21:09:30.991Z,23.16
2022-10-23T21:11:58.856Z,23.13
2022-10-23T21:14:26.855Z,23.12
2022-10-23T21:16:54.837Z,23.08
2022-10-23T21:19:22.811Z,23.06
2022-10-23T21:21:50.776Z,23.04
2022-10-23T21:24:18.838Z,23.02
2022-10-23T21:26:46.835Z,23.00
2022-10-23T21:29:19.371Z,22.97
2022-10-23T21:31:55.905Z,22.94
2022-10-23T21:34:25.620Z,22.91
2022-10-23T21:39:43.887Z,22.88
2022-10-23T21:42:13.763Z,22.86
2022-10-23T21:44:41.733Z,22.82
2022-10-23T21:47:09.806Z,22.81
2022-10-23T21:49:38.302Z,22.79
2022-10-23T21:52:06.425Z,22.78
2022-10-23T21:54:34.417Z,22.75
2022-10-23T21:57:02.422Z,22.74
2022-10-23T21:59:33.160Z,22.72
2022-10-23T22:02:04.375Z,22.70
2022-10-23T22:04:32.785Z,22.69
2022-10-23T22:07:01.481Z,22.69
2022-10-23T22:09:29.768Z,22.68
2022-10-23T22:11:57.940Z,22.66
2022-10-23T22:14:27.239Z,22.65
2022-10-23T22:16:55.113Z,22.63
2022-10-23T22:19:23.394Z,22.63
2022-10-23T22:21:51.735Z,22.62
2022-10-23T22:24:20.321Z,22.62
2022-10-23T22:26:53.962Z,22.61
2022-10-23T22:29:26.425Z,22.60
2022-10-23T22:31:54.418Z,22.58
2022-10-23T22:34:51.441Z,22.58
2022-10-23T22:37:16.972Z,22.57
2022-10-23T22:39:44.837Z,22.57
2022-10-23T22:42:12.913Z,22.57
2022-10-23T22:44:40.990Z,22.56
2022-10-23T22:47:09.027Z,22.55
2022-10-23T22:49:37.347Z,22.54
2022-10-23T22:52:05.320Z,22.54
2022-10-23T22:54:33.908Z,22.53
2022-10-23T22:57:01.886Z,22.53
2022-10-23T22:59:30.265Z,22.53
2022-10-23T23:01:58.692Z,22.53
2022-10-23T23:04:37.289Z,22.53
2022-10-23T23:07:07.768Z,22.53
2022-10-23T23:09:40.376Z,22.52
2022-10-23T23:12:11.601Z,22.51
2022-10-23T23:14:40.108Z,22.51
2022-10-23T23:17:09.257Z,22.51
2022-10-23T23:19:37.489Z,22.49
2022-10-23T23:22:05.667Z,22.49
2022-10-23T23:24:33.951Z,22.47
2022-10-23T23:27:02.227Z,22.46
2022-10-23T23:29:33.199Z,22.46
2022-10-23T23:32:01.148Z,22.45
2022-10-23T23:34:29.527Z,22.44
2022-10-23T23:36:58.422Z,22.44
2022-10-23T23:39:26.540Z,22.43
2022-10-23T23:41:55.086Z,22.43
2022-10-23T23:44:23.060Z,22.43
2022-10-23T23:46:51.037Z,22.42
2022-10-23T23:49:19.108Z,22.41
2022-10-23T23:51:47.082Z,22.41
2022-10-23T23:54:15.290Z,22.39
2022-10-23T23:56:43.545Z,22.37
2022-10-23T23:59:11.514Z,22.34
